Time;durP1;ratioP1;P1;durP2;ratioP2;P2;SDS_P1;SDS_P2;PMS_P1;PMS_P2;Temp;Humidity;BMP_temperature;BMP_pressure;BME280_temperature;BME280_humidity;BME280_pressure;Samples;Min_cycle;Max_cycle;Signal;HPM_P1;HPM_P2
2021/06/16 00:00:15;;;;;;;;;;;;;;;18.37;61.55;100279.47;126769;1089;114522;-80
2021/06/16 00:03:22;;;;;;;17.53;12.40;;;;;;;18.30;62.01;100281.63;126980;1088;102877;-80
2021/06/16 00:06:10;;;;;;;18.47;14.17;;;;;;;18.25;62.20;100269.67;126766;1089;114809;-80
2021/06/16 00:08:59;;;;;;;17.23;13.17;;;;;;;18.22;62.19;100275.16;126969;1090;103023;-80
2021/06/16 00:11:47;;;;;;;17.27;11.97;;;;;;;18.19;62.59;100275.36;126830;1089;113935;-80
2021/06/16 00:14:35;;;;;;;17.53;13.33;;;;;;;18.14;62.83;100280.09;127016;1088;103020;-80
2021/06/16 00:17:23;;;;;;;16.63;12.70;;;;;;;18.10;62.99;100284.69;126874;1090;102894;-80
2021/06/16 00:20:12;;;;;;;15.67;12.90;;;;;;;18.07;63.40;100292.80;126981;1090;103007;-80
2021/06/16 00:23:01;;;;;;;15.47;12.00;;;;;;;18.03;63.47;100283.38;126837;1089;102904;-80
2021/06/16 00:25:49;;;;;;;16.05;12.30;;;;;;;18.00;63.55;100287.06;126806;1090;114843;-80
2021/06/16 00:28:37;;;;;;;16.17;12.83;;;;;;;17.97;63.57;100279.34;126823;1090;102988;-80
2021/06/16 00:31:25;;;;;;;17.03;12.07;;;;;;;17.93;63.61;100284.88;126785;1088;114583;-80
2021/06/16 00:34:13;;;;;;;18.73;12.63;;;;;;;17.87;63.54;100283.48;126828;1090;102943;-80
2021/06/16 00:37:00;;;;;;;;;;;;;;;17.85;63.81;100282.73;126906;1090;114439;-80
2021/06/16 00:39:48;;;;;;;15.57;11.47;;;;;;;17.81;63.60;100287.36;126801;1088;102936;-80
2021/06/16 00:42:37;;;;;;;21.00;14.57;;;;;;;17.81;63.74;100286.51;126715;1088;114853;-80
2021/06/16 00:45:25;;;;;;;15.60;11.20;;;;;;;17.78;63.74;100284.91;126884;1089;102846;-80
2021/06/16 00:48:13;;;;;;;12.97;10.90;;;;;;;17.74;63.82;100283.38;126720;1088;113691;-80
2021/06/16 00:51:01;;;;;;;13.13;9.97;;;;;;;17.69;63.25;100281.97;126889;1090;102991;-80
2021/06/16 00:53:49;;;;;;;14.50;10.80;;;;;;;17.65;63.36;100285.71;127080;1090;102856;-80
2021/06/16 00:56:40;;;;;;;17.55;11.85;;;;;;;17.62;63.51;100291.17;126905;1089;102846;-80
2021/06/16 00:59:50;;;;;;;16.87;10.57;;;;;;;17.59;63.16;100288.70;127061;1089;102922;-80
2021/06/16 01:02:51;;;;;;;14.20;9.60;;;;;;;17.53;63.26;100274.11;126880;1090;114474;-80
2021/06/16 01:05:48;;;;;;;14.73;10.20;;;;;;;17.50;62.91;100274.30;126991;1090;102958;-80
2021/06/16 01:08:40;;;;;;;15.80;11.10;;;;;;;17.47;62.94;100275.33;126796;1090;114331;-80
2021/06/16 01:11:31;;;;;;;17.47;11.47;;;;;;;17.41;62.80;100280.95;126923;1090;102891;-80
2021/06/16 01:14:27;;;;;;;21.10;13.93;;;;;;;17.39;63.01;100282.84;126821;1090;114620;-80
2021/06/16 01:17:20;;;;;;;12.77;10.23;;;;;;;17.34;63.04;100298.09;126960;1089;103802;-80
2021/06/16 01:20:40;;;;;;;16.37;12.03;;;;;;;17.29;62.98;100292.25;126820;1089;114692;-80
2021/06/16 01:23:58;;;;;;;14.13;10.27;;;;;;;17.20;62.96;100295.41;126873;1088;102850;-79
2021/06/16 01:26:51;;;;;;;11.90;8.53;;;;;;;17.14;62.85;100290.51;126814;1089;114534;-80
2021/06/16 01:29:41;;;;;;;14.30;9.03;;;;;;;17.09;62.64;100288.15;127042;1089;101384;-80
2021/06/16 01:32:30;;;;;;;14.45;10.25;;;;;;;17.06;62.85;100292.76;126762;1090;114432;-80
2021/06/16 01:35:19;;;;;;;13.90;9.97;;;;;;;17.01;62.80;100293.00;126781;1089;102858;-81
2021/06/16 01:38:10;;;;;;;13.70;8.77;;;;;;;17.00;63.04;100286.03;126676;1089;114479;-81
2021/06/16 01:41:01;;;;;;;9.57;8.00;;;;;;;16.99;63.27;100284.34;126819;1089;102897;-81
2021/06/16 01:43:54;;;;;;;13.20;9.10;;;;;;;16.96;63.37;100276.63;126759;1090;114541;-81
2021/06/16 01:46:44;;;;;;;15.77;10.83;;;;;;;16.91;63.57;100279.53;126825;1088;102849;-80
2021/06/16 01:49:33;;;;;;;13.87;10.20;;;;;;;16.90;63.84;100285.73;126744;1089;114747;-81
2021/06/16 01:52:24;;;;;;;14.03;10.20;;;;;;;16.87;64.22;100293.78;126799;1090;102924;-81
2021/06/16 01:55:13;;;;;;;16.43;10.23;;;;;;;16.83;64.69;100294.91;126709;1089;114691;-81
2021/06/16 01:58:02;;;;;;;17.60;11.03;;;;;;;16.78;65.00;100299.59;126811;1090;101509;-81
2021/06/16 02:00:53;;;;;;;12.30;10.00;;;;;;;16.73;65.19;100314.82;126698;1090;114548;-81
2021/06/16 02:03:42;;;;;;;26.50;17.85;;;;;;;16.70;65.69;100325.53;126819;1090;102654;-81
2021/06/16 02:06:40;;;;;;;;;;;;;;;16.68;65.51;100315.99;126774;1090;113663;-81
2021/06/16 02:09:34;;;;;;;13.40;9.80;;;;;;;16.65;65.33;100327.52;126944;1088;103307;-81
2021/06/16 02:12:23;;;;;;;12.97;9.83;;;;;;;16.61;64.94;100326.00;126816;1090;102863;-81
2021/06/16 02:15:16;;;;;;;12.47;9.30;;;;;;;16.57;64.00;100321.84;126816;1088;103004;-81
2021/06/16 02:18:06;;;;;;;11.13;8.17;;;;;;;16.50;63.44;100344.16;126849;1089;103007;-81
2021/06/16 02:20:55;;;;;;;6.50;5.40;;;;;;;16.44;62.70;100342.73;126687;1089;113342;-81
2021/06/16 02:23:44;;;;;;;9.33;6.77;;;;;;;16.38;62.16;100336.96;126829;1089;103004;-81
2021/06/16 02:26:31;;;;;;;7.10;5.23;;;;;;;16.33;61.60;100340.66;126682;1090;113147;-81
2021/06/16 02:29:19;;;;;;;;;;;;;;;16.28;60.85;100334.81;126848;1090;102959;-81
2021/06/16 02:32:08;;;;;;;6.55;4.40;;;;;;;16.23;60.17;100339.48;126859;1088;102854;-81
2021/06/16 02:34:59;;;;;;;8.80;5.50;;;;;;;16.19;59.96;100342.38;126730;1089;102900;-81
2021/06/16 02:37:58;;;;;;;5.93;3.70;;;;;;;16.19;59.13;100347.63;126697;1089;114205;-81
2021/06/16 02:40:47;;;;;;;6.30;3.80;;;;;;;16.17;58.69;100347.72;126760;1090;102949;-81
2021/06/16 02:43:37;;;;;;;7.53;3.47;;;;;;;16.17;58.32;100347.72;126609;1090;113468;-81
2021/06/16 02:46:27;;;;;;;6.23;3.23;;;;;;;16.17;58.26;100354.77;126772;1089;102855;-81
2021/06/16 02:49:15;;;;;;;4.60;2.60;;;;;;;16.18;57.65;100352.05;126633;1090;114448;-81
2021/06/16 02:52:08;;;;;;;6.80;3.00;;;;;;;16.19;57.80;100361.64;126828;1089;102948;-81
2021/06/16 02:55:05;;;;;;;5.57;3.70;;;;;;;16.22;57.59;100361.47;126687;1090;114501;-81
2021/06/16 02:57:55;;;;;;;5.23;3.65;;;;;;;16.25;57.52;100356.04;126824;1089;102876;-81
2021/06/16 03:00:52;;;;;;;7.40;4.93;;;;;;;16.34;57.98;100362.61;126787;1090;102887;-81
2021/06/16 03:03:42;;;;;;;4.40;3.07;;;;;;;16.42;57.38;100354.28;126836;1088;103300;-81
2021/06/16 03:06:31;;;;;;;7.07;4.00;;;;;;;16.46;57.09;100361.91;126776;1090;103071;-81
2021/06/16 03:09:22;;;;;;;5.10;3.40;;;;;;;16.53;57.19;100365.08;126667;1089;114763;-80
2021/06/16 03:12:11;;;;;;;6.23;4.07;;;;;;;16.57;56.93;100367.45;126832;1090;103052;-80
2021/06/16 03:15:00;;;;;;;4.53;2.73;;;;;;;16.63;56.63;100366.26;126703;1090;114096;-81
2021/06/16 03:17:49;;;;;;;5.33;3.33;;;;;;;16.69;56.47;100372.99;126774;1090;102930;-81
2021/06/16 03:20:39;;;;;;;9.60;6.40;;;;;;;16.73;56.82;100374.55;126750;1089;114472;-81
2021/06/16 03:23:28;;;;;;;7.37;4.50;;;;;;;16.79;56.54;100377.68;126863;1090;102924;-79
2021/06/16 03:26:18;;;;;;;5.87;3.67;;;;;;;16.82;56.64;100371.39;126666;1089;114122;-81
2021/06/16 03:29:06;;;;;;;9.40;5.63;;;;;;;16.86;56.94;100376.39;126822;1089;102783;-81
2021/06/16 03:31:56;;;;;;;7.13;4.30;;;;;;;16.89;56.61;100376.24;126700;1090;114447;-81
2021/06/16 03:34:44;;;;;;;4.70;3.10;;;;;;;16.94;56.47;100380.39;126792;1090;102903;-81
2021/06/16 03:37:32;;;;;;;6.17;4.03;;;;;;;16.98;56.74;100379.28;126738;1090;114342;-81
2021/06/16 03:40:25;;;;;;;8.37;4.17;;;;;;;17.00;56.62;100382.67;126791;1089;102915;-81
2021/06/16 03:43:13;;;;;;;7.60;4.90;;;;;;;17.02;56.37;100383.44;126752;1089;102884;-81
2021/06/16 03:46:05;;;;;;;7.07;4.60;;;;;;;17.04;56.21;100390.31;126794;1088;102708;-81
2021/06/16 03:48:54;;;;;;;6.50;3.70;;;;;;;17.03;55.63;100398.30;126846;1089;102967;-81
2021/06/16 03:51:44;;;;;;;6.77;4.23;;;;;;;16.97;55.65;100409.20;126648;1090;114418;-81
2021/06/16 03:54:32;;;;;;;8.00;4.43;;;;;;;16.93;55.61;100412.95;126717;1090;102676;-81
2021/06/16 03:57:21;;;;;;;7.30;3.27;;;;;;;16.91;55.78;100405.13;126678;1090;114157;-81
2021/06/16 04:00:10;;;;;;;5.97;3.83;;;;;;;16.91;55.70;100421.79;126748;1088;102911;-81
2021/06/16 04:02:58;;;;;;;4.70;3.70;;;;;;;16.93;55.85;100418.22;126692;1090;114105;-81
2021/06/16 04:05:48;;;;;;;5.37;3.67;;;;;;;16.97;55.84;100419.73;126797;1090;103489;-81
2021/06/16 04:08:36;;;;;;;5.30;3.07;;;;;;;17.03;55.94;100411.48;126711;1088;114315;-81
2021/06/16 04:11:25;;;;;;;4.70;3.35;;;;;;;17.07;55.79;100413.88;126957;1089;102964;-81
2021/06/16 04:14:14;;;;;;;6.13;3.07;;;;;;;17.11;55.78;100422.45;126785;1089;114328;-81
2021/06/16 04:17:02;;;;;;;6.63;4.77;;;;;;;17.17;55.74;100416.83;126763;1090;102872;-81
2021/06/16 04:19:52;;;;;;;9.60;6.10;;;;;;;17.27;55.97;100415.39;126635;1090;114449;-81
2021/06/16 04:22:40;;;;;;;13.93;5.53;;;;;;;17.38;55.70;100420.88;126821;1090;103015;-81
2021/06/16 04:25:28;;;;;;;13.90;7.87;;;;;;;17.48;55.61;100415.94;126842;1090;102846;-81
2021/06/16 04:28:16;;;;;;;4.93;3.33;;;;;;;17.54;54.88;100412.92;126770;1090;114328;-79
2021/06/16 04:31:04;;;;;;;5.47;3.73;;;;;;;17.60;54.91;100419.66;126945;1089;102852;-80
2021/06/16 04:33:52;;;;;;;8.70;5.55;;;;;;;17.69;55.02;100416.50;126846;1089;114466;-80
2021/06/16 04:36:39;;;;;;;;;;;;;;;17.79;54.67;100409.75;126992;1090;102858;-80
2021/06/16 04:39:27;;;;;;;7.17;4.23;;;;;;;17.84;54.39;100405.04;126817;1090;102943;-80
2021/06/16 04:42:15;;;;;;;5.63;3.87;;;;;;;17.93;53.98;100411.54;127017;1089;102941;-80
2021/06/16 04:45:05;;;;;;;8.57;4.17;;;;;;;17.96;54.19;100414.88;126763;1090;114225;-80
2021/06/16 04:47:53;;;;;;;5.33;4.03;;;;;;;18.02;53.90;100411.86;126863;1088;103058;-80
2021/06/16 04:50:40;;;;;;;6.57;3.37;;;;;;;18.13;53.96;100413.83;126788;1089;113027;-80
2021/06/16 04:53:28;;;;;;;6.80;3.80;;;;;;;18.25;53.64;100402.52;126805;1090;102946;-80
2021/06/16 04:56:16;;;;;;;9.03;3.80;;;;;;;18.37;53.27;100414.14;126751;1089;113374;-81
2021/06/16 04:59:04;;;;;;;7.50;4.00;;;;;;;18.47;53.40;100407.33;126917;1090;102872;-81
2021/06/16 05:01:52;;;;;;;5.30;3.20;;;;;;;18.61;52.95;100406.47;126822;1089;102862;-80
2021/06/16 05:04:39;;;;;;;;;;;;;;;18.78;52.99;100416.01;126810;1088;102887;-80
2021/06/16 05:07:28;;;;;;;8.85;4.58;;;;;;;18.95;53.10;100418.42;126819;1089;102876;-80
2021/06/16 05:10:16;;;;;;;5.80;3.30;;;;;;;19.04;52.48;100427.58;126899;1089;114267;-80
2021/06/16 05:13:04;;;;;;;5.53;3.70;;;;;;;19.14;52.36;100423.38;126853;1089;103036;-80
2021/06/16 05:15:53;;;;;;;8.47;4.97;;;;;;;19.27;51.93;100427.77;126759;1090;114121;-80
2021/06/16 05:18:43;;;;;;;8.20;4.57;;;;;;;19.42;51.23;100420.63;126818;1089;103020;-81
2021/06/16 05:21:31;;;;;;;5.40;2.40;;;;;;;19.58;50.54;100417.85;126664;1090;114353;-81
2021/06/16 05:24:20;;;;;;;5.90;3.63;;;;;;;19.79;51.04;100420.85;126797;1090;102951;-81
2021/06/16 05:27:09;;;;;;;5.67;3.53;;;;;;;20.08;50.80;100427.64;126798;1088;114312;-79
2021/06/16 05:29:56;;;;;;;7.57;3.90;;;;;;;20.38;50.46;100422.02;126777;1090;102895;-81
2021/06/16 05:32:44;;;;;;;6.93;2.83;;;;;;;20.65;49.24;100421.08;126664;1090;114308;-81
2021/06/16 05:35:32;;;;;;;8.43;4.77;;;;;;;20.86;49.42;100431.95;126816;1090;102876;-81
2021/06/16 05:38:20;;;;;;;8.83;3.40;;;;;;;21.16;48.93;100434.16;126732;1090;114520;-80
2021/06/16 05:41:07;;;;;;;9.33;4.40;;;;;;;21.50;48.19;100433.39;126851;1090;102907;-81
2021/06/16 05:43:55;;;;;;;5.43;3.87;;;;;;;21.82;48.00;100446.06;126742;1090;102879;-80
2021/06/16 05:46:43;;;;;;;9.67;3.90;;;;;;;22.08;47.31;100439.63;126737;1089;115088;-80
2021/06/16 05:49:32;;;;;;;12.00;4.70;;;;;;;22.48;46.80;100436.55;126840;1090;102986;-79
2021/06/16 05:52:19;;;;;;;8.27;4.90;;;;;;;22.97;47.03;100436.16;126697;1089;114443;-80
2021/06/16 05:55:07;;;;;;;14.33;8.03;;;;;;;23.48;45.82;100424.88;126894;1090;103124;-80
2021/06/16 05:57:55;;;;;;;12.63;6.73;;;;;;;24.05;44.93;100424.47;126745;1088;113212;-80
2021/06/16 06:00:43;;;;;;;8.17;4.93;;;;;;;24.84;44.25;100424.72;126860;1090;103031;-80
2021/06/16 06:03:32;;;;;;;8.87;7.03;;;;;;;26.17;42.94;100420.53;126775;1089;114078;-80
2021/06/16 06:06:21;;;;;;;7.93;4.30;;;;;;;27.80;40.30;100417.89;126900;1090;102921;-80
2021/06/16 06:09:09;;;;;;;8.10;2.47;;;;;;;29.32;38.52;100419.81;126819;1088;114237;-80
2021/06/16 06:11:58;;;;;;;5.60;2.50;;;;;;;30.54;36.28;100421.57;126737;1090;102877;-79
2021/06/16 06:14:46;;;;;;;7.67;3.00;;;;;;;31.59;34.46;100417.42;126733;1089;113185;-80
2021/06/16 06:17:34;;;;;;;4.10;2.53;;;;;;;32.52;32.65;100408.97;126835;1089;103016;-81
2021/06/16 06:20:23;;;;;;;5.03;3.53;;;;;;;33.50;31.79;100413.84;126725;1090;114340;-80
2021/06/16 06:23:11;;;;;;;7.20;3.37;;;;;;;34.21;30.23;100417.33;126842;1090;103112;-81
2021/06/16 06:26:00;;;;;;;14.70;6.70;;;;;;;34.48;29.03;100422.94;126861;1090;103023;-81
2021/06/16 06:28:47;;;;;;;5.90;3.60;;;;;;;34.60;28.81;100425.89;126722;1090;114140;-81
2021/06/16 06:31:35;;;;;;;9.87;3.20;;;;;;;34.68;27.99;100426.58;126822;1090;103319;-80
2021/06/16 06:34:23;;;;;;;4.47;2.80;;;;;;;34.90;27.70;100429.18;126899;1089;114223;-81
2021/06/16 06:37:11;;;;;;;7.13;2.97;;;;;;;35.17;27.05;100430.08;126854;1088;103103;-81
2021/06/16 06:39:59;;;;;;;5.23;2.20;;;;;;;35.43;26.91;100425.58;126747;1090;114270;-81
2021/06/16 06:42:47;;;;;;;4.67;2.33;;;;;;;35.68;25.86;100428.50;126814;1090;103197;-81
2021/06/16 06:45:34;;;;;;;5.93;3.83;;;;;;;36.02;25.88;100426.64;126667;1089;115164;-80
2021/06/16 06:48:22;;;;;;;6.67;4.33;;;;;;;35.89;25.37;100424.77;126918;1088;102866;-80
2021/06/16 06:51:10;;;;;;;7.00;2.60;;;;;;;34.92;25.71;100430.64;126760;1089;113275;-80
2021/06/16 06:53:58;;;;;;;5.50;2.50;;;;;;;33.64;25.72;100425.62;126911;1089;101879;-79
2021/06/16 06:56:46;;;;;;;8.10;2.00;;;;;;;32.50;26.50;100429.05;126643;1089;114263;-80
2021/06/16 06:59:35;;;;;;;5.90;3.30;;;;;;;31.44;27.71;100440.83;126782;1089;102890;-79
2021/06/16 07:02:25;;;;;;;6.27;3.70;;;;;;;30.35;28.04;100441.66;126936;1090;102872;-80
2021/06/16 07:05:14;;;;;;;8.53;3.53;;;;;;;29.80;29.16;100442.34;126915;1090;102854;-80
2021/06/16 07:08:01;;;;;;;7.70;4.20;;;;;;;29.36;30.14;100452.55;126825;1087;103260;-81
2021/06/16 07:10:50;;;;;;;6.90;2.90;;;;;;;29.89;30.05;100437.82;126696;1090;114231;-79
2021/06/16 07:13:38;;;;;;;5.03;2.57;;;;;;;31.21;29.75;100436.24;126865;1090;102671;-79
2021/06/16 07:16:27;;;;;;;3.63;2.27;;;;;;;32.73;28.29;100429.79;126638;1090;114107;-79
2021/06/16 07:19:15;;;;;;;6.57;2.20;;;;;;;33.91;26.67;100432.09;126730;1090;103320;-79
2021/06/16 07:22:04;;;;;;;10.65;4.25;;;;;;;34.90;26.17;100442.73;126628;1090;114191;-81
2021/06/16 07:24:52;;;;;;;5.53;2.30;;;;;;;35.78;25.27;100430.81;126697;1090;103019;-80
2021/06/16 07:27:43;;;;;;;7.17;2.50;;;;;;;36.59;24.63;100425.06;126697;1090;113239;-79
2021/06/16 07:30:31;;;;;;;5.93;2.30;;;;;;;37.21;23.42;100421.64;127003;1090;102673;-80
2021/06/16 07:33:18;;;;;;;4.90;2.30;;;;;;;37.67;23.00;100425.09;126764;1089;114542;-80
2021/06/16 07:36:11;;;;;;;6.23;3.23;;;;;;;38.18;22.65;100418.57;126709;1089;102296;-80
2021/06/16 07:38:58;;;;;;;5.77;2.77;;;;;;;38.67;22.11;100423.09;126613;1089;114345;-80
2021/06/16 07:41:47;;;;;;;7.33;3.40;;;;;;;38.96;21.69;100419.56;126841;1090;102968;-80
2021/06/16 07:44:34;;;;;;;6.40;3.00;;;;;;;39.25;21.20;100425.25;126817;1090;102824;-79
2021/06/16 07:47:22;;;;;;;6.30;2.70;;;;;;;39.44;20.46;100431.47;126773;1089;113187;-79
2021/06/16 07:50:11;;;;;;;9.30;2.70;;;;;;;39.75;20.30;100433.92;126769;1090;102872;-79
2021/06/16 07:52:59;;;;;;;5.67;2.17;;;;;;;39.81;19.82;100432.14;126769;1089;114219;-79
2021/06/16 07:55:47;;;;;;;9.23;4.80;;;;;;;39.76;19.86;100430.13;126851;1088;102879;-79
2021/06/16 07:58:34;;;;;;;8.30;3.90;;;;;;;39.92;19.36;100425.03;126763;1089;114086;-79
2021/06/16 08:01:22;;;;;;;5.37;2.60;;;;;;;40.05;19.53;100425.66;126897;1089;102849;-80
2021/06/16 08:04:10;;;;;;;4.67;2.17;;;;;;;40.37;19.18;100436.17;126809;1090;114153;-79
2021/06/16 08:06:58;;;;;;;5.10;2.40;;;;;;;40.58;18.90;100437.45;126815;1089;102981;-79
2021/06/16 08:09:46;;;;;;;4.30;1.97;;;;;;;40.61;18.49;100431.53;126728;1090;114315;-79
2021/06/16 08:12:34;;;;;;;9.57;3.67;;;;;;;40.51;18.27;100434.88;126921;1088;102989;-80
2021/06/16 08:15:22;;;;;;;4.63;2.00;;;;;;;40.64;18.38;100434.61;126625;1090;114661;-79
2021/06/16 08:18:12;;;;;;;6.13;2.20;;;;;;;40.83;18.08;100434.45;126990;1089;102939;-79
2021/06/16 08:21:00;;;;;;;4.97;2.07;;;;;;;40.90;17.64;100437.86;127001;1089;102712;-80
2021/06/16 08:23:49;;;;;;;3.73;2.07;;;;;;;40.96;17.68;100436.91;126729;1089;102888;-80
2021/06/16 08:26:36;;;;;;;8.97;3.40;;;;;;;40.91;17.62;100434.88;127032;1089;102860;-79
2021/06/16 08:29:24;;;;;;;6.07;3.70;;;;;;;40.87;17.18;100441.09;126713;1090;114226;-80
2021/06/16 08:32:12;;;;;;;6.10;3.10;;;;;;;40.65;17.53;100439.00;126934;1088;102940;-80
2021/06/16 08:35:01;;;;;;;5.20;2.23;;;;;;;40.74;16.84;100443.00;126804;1090;114389;-79
2021/06/16 08:37:49;;;;;;;4.83;2.20;;;;;;;40.90;16.51;100446.07;126851;1090;102846;-79
2021/06/16 08:40:36;;;;;;;4.70;1.60;;;;;;;40.97;16.32;100444.87;126591;1090;114940;-79
2021/06/16 08:43:24;;;;;;;3.10;2.20;;;;;;;40.60;15.91;100446.27;126886;1090;102922;-80
2021/06/16 08:46:16;;;;;;;4.83;1.70;;;;;;;40.17;16.09;100448.31;126773;1089;114401;-80
2021/06/16 08:49:06;;;;;;;4.03;1.80;;;;;;;40.16;16.81;100445.83;126944;1088;102885;-80
2021/06/16 08:51:55;;;;;;;3.93;2.27;;;;;;;40.16;16.25;100452.12;126877;1089;113388;-80
2021/06/16 08:54:44;;;;;;;4.83;1.90;;;;;;;40.08;16.14;100455.23;126878;1090;102887;-81
2021/06/16 08:57:32;;;;;;;5.50;1.95;;;;;;;39.90;16.09;100462.67;126736;1089;114229;-81
2021/06/16 09:00:21;;;;;;;5.03;2.47;;;;;;;39.76;16.78;100468.35;126964;1088;102933;-80
2021/06/16 09:03:09;;;;;;;8.63;5.33;;;;;;;39.63;17.02;100465.83;126970;1088;103006;-80
2021/06/16 09:06:13;;;;;;;5.53;2.90;;;;;;;39.43;17.13;100463.38;126629;1090;113010;-80
2021/06/16 09:09:06;;;;;;;4.43;2.30;;;;;;;39.25;16.82;100460.72;126997;1090;102994;-80
2021/06/16 09:11:54;;;;;;;4.00;2.40;;;;;;;39.14;17.36;100461.50;126950;1089;114300;-80
2021/06/16 09:14:55;;;;;;;5.07;1.73;;;;;;;38.88;17.18;100460.77;127057;1090;102847;-80
2021/06/16 09:18:18;;;;;;;6.50;2.70;;;;;;;38.89;17.49;100467.06;126908;1090;114131;-80
2021/06/16 09:21:06;;;;;;;4.80;2.40;;;;;;;38.93;17.76;100463.64;126969;1090;102864;-80
2021/06/16 09:23:53;;;;;;;3.35;2.40;;;;;;;38.97;17.67;100456.69;126872;1090;114348;-80
2021/06/16 09:26:43;;;;;;;6.67;2.90;;;;;;;38.94;17.66;100470.75;126828;1088;100871;-80
2021/06/16 09:29:31;;;;;;;5.50;3.00;;;;;;;38.94;17.82;100461.73;126878;1089;113994;-81
2021/06/16 09:32:19;;;;;;;5.23;3.07;;;;;;;38.95;17.66;100472.41;126930;1089;102650;-81
2021/06/16 09:35:27;;;;;;;6.70;3.00;;;;;;;39.03;16.98;100463.09;126767;1089;114104;-81
2021/06/16 09:38:24;;;;;;;3.20;1.97;;;;;;;39.07;17.14;100463.47;126959;1089;102882;-80
2021/06/16 09:41:19;;;;;;;6.67;3.77;;;;;;;38.94;17.05;100470.75;126874;1088;113256;-81
2021/06/16 09:44:07;;;;;;;3.43;1.90;;;;;;;38.81;17.66;100465.49;126925;1090;103060;-81
2021/06/16 09:47:21;;;;;;;6.83;2.70;;;;;;;38.73;17.24;100456.78;126669;1088;114301;-80
2021/06/16 09:50:09;;;;;;;3.20;1.93;;;;;;;38.37;17.92;100456.52;126943;1089;102873;-81
2021/06/16 09:52:58;;;;;;;7.70;4.57;;;;;;;38.44;17.89;100463.81;126813;1089;114477;-81
2021/06/16 09:55:45;;;;;;;5.20;2.13;;;;;;;38.49;17.78;100459.34;126863;1088;102844;-80
2021/06/16 09:58:39;;;;;;;4.33;2.40;;;;;;;38.39;17.87;100462.58;126843;1089;113430;-80
2021/06/16 10:01:45;;;;;;;3.70;2.00;;;;;;;38.27;17.78;100458.95;126873;1089;102870;-80
2021/06/16 10:04:38;;;;;;;5.20;2.50;;;;;;;38.19;18.59;100464.68;126845;1090;113099;-80
2021/06/16 10:07:31;;;;;;;6.00;2.47;;;;;;;38.22;18.33;100456.05;127009;1089;102754;-79
2021/06/16 10:10:19;;;;;;;6.87;3.90;;;;;;;38.15;18.45;100455.27;126869;1090;113018;-79
2021/06/16 10:13:07;;;;;;;4.15;2.70;;;;;;;37.92;18.44;100457.80;126846;1089;104100;-80
2021/06/16 10:15:57;;;;;;;4.83;2.70;;;;;;;37.76;18.76;100467.36;126626;1090;114313;-80
2021/06/16 10:18:45;;;;;;;5.37;2.77;;;;;;;37.60;19.20;100465.14;126823;1090;102859;-79
2021/06/16 10:21:33;;;;;;;6.57;2.40;;;;;;;37.43;18.48;100462.13;126825;1090;102914;-80
2021/06/16 10:24:20;;;;;;;7.87;2.27;;;;;;;37.02;19.40;100460.67;126774;1090;114244;-80
2021/06/16 10:27:39;;;;;;;5.07;2.90;;;;;;;36.81;19.76;100463.70;126870;1089;102873;-80
2021/06/16 10:30:29;;;;;;;8.40;3.70;;;;;;;36.54;19.55;100463.74;126679;1089;113169;-81
2021/06/16 10:33:30;;;;;;;5.50;3.30;;;;;;;36.28;19.69;100463.80;126830;1090;103037;-79
2021/06/16 10:36:23;;;;;;;6.57;2.47;;;;;;;35.83;20.26;100460.86;126656;1089;114071;-81
2021/06/16 10:39:13;;;;;;;7.43;4.17;;;;;;;35.30;20.76;100466.20;126808;1090;102956;-81
2021/06/16 10:42:01;;;;;;;6.37;2.93;;;;;;;35.16;21.29;100456.35;126778;1089;113603;-81
2021/06/16 10:45:20;;;;;;;4.47;2.70;;;;;;;34.94;21.77;100465.67;126801;1089;103017;-81
2021/06/16 10:48:10;;;;;;;6.43;4.00;;;;;;;34.86;21.91;100457.73;126797;1089;114065;-81
2021/06/16 10:51:02;;;;;;;9.70;3.30;;;;;;;34.64;21.60;100459.66;126892;1090;102905;-81
2021/06/16 10:54:15;;;;;;;5.40;3.00;;;;;;;33.98;22.10;100446.53;126723;1089;114548;-81
2021/06/16 10:57:11;;;;;;;6.33;3.40;;;;;;;33.54;22.52;100463.80;126821;1088;101267;-81
2021/06/16 11:00:03;;;;;;;4.83;3.05;;;;;;;33.28;22.81;100458.10;126810;1090;114141;-81
2021/06/16 11:02:56;;;;;;;7.40;4.40;;;;;;;33.12;23.77;100458.33;126867;1088;102897;-81
2021/06/16 11:05:45;;;;;;;6.80;2.97;;;;;;;33.05;23.57;100456.41;126659;1090;114139;-81
2021/06/16 11:08:47;;;;;;;6.53;3.10;;;;;;;32.95;23.70;100457.72;126944;1090;103029;-81
2021/06/16 11:11:48;;;;;;;6.60;3.33;;;;;;;32.74;24.04;100453.91;126709;1090;114321;-81
2021/06/16 11:14:45;;;;;;;7.97;4.80;;;;;;;32.61;24.27;100448.33;126950;1090;102994;-81
2021/06/16 11:17:42;;;;;;;7.03;3.83;;;;;;;32.28;24.50;100455.11;126753;1088;113366;-81
2021/06/16 11:20:41;;;;;;;6.97;4.07;;;;;;;32.08;24.97;100461.02;126817;1090;102844;-80
2021/06/16 11:23:31;;;;;;;6.27;3.37;;;;;;;31.93;25.15;100456.61;126664;1090;114311;-81
2021/06/16 11:26:45;;;;;;;7.23;3.47;;;;;;;31.81;25.11;100454.38;126939;1089;102856;-81
2021/06/16 11:30:08;;;;;;;7.60;4.13;;;;;;;31.77;25.85;100452.20;126730;1089;114508;-80
2021/06/16 11:33:21;;;;;;;6.97;4.00;;;;;;;31.77;25.84;100453.03;127004;1089;102687;-80
2021/06/16 11:36:20;;;;;;;6.90;4.30;;;;;;;31.68;26.10;100453.27;126716;1089;114264;-80
2021/06/16 11:39:14;;;;;;;9.87;6.87;;;;;;;31.48;26.26;100452.92;126900;1090;102924;-80
2021/06/16 11:42:04;;;;;;;12.67;5.27;;;;;;;31.45;26.49;100447.89;126738;1090;114357;-80
2021/06/16 11:44:52;;;;;;;5.17;3.20;;;;;;;31.49;26.65;100451.90;126781;1089;103034;-80
2021/06/16 11:47:41;;;;;;;6.47;4.30;;;;;;;31.41;26.59;100452.78;126791;1090;114297;-80
2021/06/16 11:50:32;;;;;;;6.00;4.37;;;;;;;31.31;26.68;100452.19;126850;1089;102871;-80
2021/06/16 11:53:32;;;;;;;7.50;4.30;;;;;;;31.24;26.95;100454.77;126732;1088;114283;-79
2021/06/16 11:56:21;;;;;;;6.37;3.10;;;;;;;31.16;27.39;100451.24;126927;1088;102895;-79
2021/06/16 11:59:08;;;;;;;8.95;5.90;;;;;;;31.01;27.49;100456.54;126610;1090;114119;-80
2021/06/16 12:02:29;;;;;;;5.50;3.10;;;;;;;31.03;27.44;100446.42;126731;1089;102920;-79
2021/06/16 12:05:27;;;;;;;5.87;3.60;;;;;;;31.08;27.08;100452.14;126839;1090;114163;-79
2021/06/16 12:08:22;;;;;;;9.08;4.73;;;;;;;31.03;27.67;100437.50;126876;1090;102934;-79
2021/06/16 12:11:24;;;;;;;7.83;4.90;;;;;;;30.72;27.78;100445.59;126778;1090;114241;-79
2021/06/16 12:14:12;;;;;;;6.90;4.60;;;;;;;30.53;28.15;100447.65;126719;1090;103037;-79
2021/06/16 12:17:04;;;;;;;8.20;4.37;;;;;;;30.52;28.33;100445.10;126724;1090;114080;-79
2021/06/16 12:19:52;;;;;;;7.20;5.13;;;;;;;30.49;28.50;100443.59;126881;1090;102954;-80
2021/06/16 12:22:40;;;;;;;7.40;6.30;;;;;;;30.22;28.45;100433.27;126792;1090;114479;-81
2021/06/16 12:25:33;;;;;;;6.00;3.97;;;;;;;30.12;28.85;100419.16;126865;1090;102985;-80
2021/06/16 12:28:21;;;;;;;9.10;4.93;;;;;;;30.00;28.99;100424.88;126737;1090;113237;-80
2021/06/16 12:31:13;;;;;;;8.30;5.90;;;;;;;29.97;29.25;100414.44;126857;1090;103094;-80
2021/06/16 12:34:03;;;;;;;8.33;5.67;;;;;;;30.02;29.19;100416.64;126813;1090;103001;-80
2021/06/16 12:37:07;;;;;;;5.00;3.40;;;;;;;30.03;29.37;100412.94;126823;1089;102923;-80
2021/06/16 12:39:59;;;;;;;6.73;3.67;;;;;;;30.08;30.01;100411.44;126914;1089;103800;-80
2021/06/16 12:42:48;;;;;;;5.83;3.77;;;;;;;30.12;29.79;100411.92;126810;1090;112931;-80
2021/06/16 12:45:40;;;;;;;8.63;5.37;;;;;;;30.18;29.75;100413.95;126804;1089;102850;-80
2021/06/16 12:48:29;;;;;;;7.45;4.10;;;;;;;30.25;29.63;100419.47;126892;1088;113720;-80
2021/06/16 12:51:17;;;;;;;5.30;4.07;;;;;;;30.21;30.19;100410.06;126849;1089;102998;-80
2021/06/16 12:54:04;;;;;;;7.70;5.77;;;;;;;30.11;30.14;100409.41;126735;1090;114408;-80